sensor_id;sensor_type;location;lat;lon;timestamp;pressure;altitude;pressure_sealevel;temperature;humidity
73860;BME280;62197;51.632;13.700;2022-11-20T00:00:51;99979.78;;;-2.16;86.52
73860;BME280;62197;51.632;13.700;2022-11-20T00:03:17;99982.88;;;-2.27;86.75
73860;BME280;62197;51.632;13.700;2022-11-20T00:05:42;99972.06;;;-2.35;86.97
73860;BME280;62197;51.632;13.700;2022-11-20T00:08:08;99968.69;;;-2.29;87.41
73860;BME280;62197;51.632;13.700;2022-11-20T00:10:36;99962.25;;;-2.44;87.94
73860;BME280;62197;51.632;13.700;2022-11-20T00:13:02;99960.91;;;-2.40;87.93
73860;BME280;62197;51.632;13.700;2022-11-20T00:15:27;99964.97;;;-2.44;87.99
73860;BME280;62197;51.632;13.700;2022-11-20T00:17:53;99975.81;;;-2.52;88.25
73860;BME280;62197;51.632;13.700;2022-11-20T00:20:18;99968.53;;;-2.51;87.73
73860;BME280;62197;51.632;13.700;2022-11-20T00:22:43;99965.50;;;-2.40;88.38
73860;BME280;62197;51.632;13.700;2022-11-20T00:25:09;99974.41;;;-2.32;88.11
73860;BME280;62197;51.632;13.700;2022-11-20T00:27:34;99970.38;;;-2.44;88.39
73860;BME280;62197;51.632;13.700;2022-11-20T00:30:00;99980.16;;;-2.35;88.68
73860;BME280;62197;51.632;13.700;2022-11-20T00:32:25;99970.91;;;-2.40;87.15
73860;BME280;62197;51.632;13.700;2022-11-20T00:34:50;99969.38;;;-2.51;86.99
73860;BME280;62197;51.632;13.700;2022-11-20T00:37:16;99966.34;;;-2.56;86.81
73860;BME280;62197;51.632;13.700;2022-11-20T00:39:41;99972.06;;;-2.59;86.53
73860;BME280;62197;51.632;13.700;2022-11-20T00:42:06;99967.03;;;-2.62;87.29
73860;BME280;62197;51.632;13.700;2022-11-20T00:44:32;99971.25;;;-2.59;86.60
73860;BME280;62197;51.632;13.700;2022-11-20T00:46:57;99982.56;;;-2.64;87.74
73860;BME280;62197;51.632;13.700;2022-11-20T00:49:22;99975.13;;;-2.70;87.72
73860;BME280;62197;51.632;13.700;2022-11-20T00:51:48;99980.88;;;-2.73;87.17
73860;BME280;62197;51.632;13.700;2022-11-20T00:54:13;99979.53;;;-2.77;87.50
73860;BME280;62197;51.632;13.700;2022-11-20T00:56:38;99980.34;;;-2.77;87.96
73860;BME280;62197;51.632;13.700;2022-11-20T00:59:05;99981.19;;;-2.84;88.06
73860;BME280;62197;51.632;13.700;2022-11-20T01:01:30;99975.09;;;-2.94;88.23
73860;BME280;62197;51.632;13.700;2022-11-20T01:03:57;99980.88;;;-2.89;88.77
73860;BME280;62197;51.632;13.700;2022-11-20T01:06:32;99993.88;;;-2.85;88.80
73860;BME280;62197;51.632;13.700;2022-11-20T01:08:59;99986.59;;;-2.84;89.36
73860;BME280;62197;51.632;13.700;2022-11-20T01:11:30;99993.03;;;-2.85;89.13
73860;BME280;62197;51.632;13.700;2022-11-20T01:13:57;99986.28;;;-2.81;89.29
73860;BME280;62197;51.632;13.700;2022-11-20T01:16:25;99990.97;;;-2.91;89.58
73860;BME280;62197;51.632;13.700;2022-11-20T01:18:53;99987.94;;;-3.04;89.52
73860;BME280;62197;51.632;13.700;2022-11-20T01:21:30;99981.81;;;-3.22;90.75
73860;BME280;62197;51.632;13.700;2022-11-20T01:23:56;99988.06;;;-3.30;90.48
73860;BME280;62197;51.632;13.700;2022-11-20T01:26:25;99983.13;;;-3.42;90.94
73860;BME280;62197;51.632;13.700;2022-11-20T01:28:51;99975.19;;;-3.44;92.09
73860;BME280;62197;51.632;13.700;2022-11-20T01:31:20;99978.72;;;-3.51;91.94
73860;BME280;62197;51.632;13.700;2022-11-20T01:33:47;99978.00;;;-3.61;92.23
73860;BME280;62197;51.632;13.700;2022-11-20T01:36:14;99958.41;;;-3.72;93.17
73860;BME280;62197;51.632;13.700;2022-11-20T01:38:40;99966.84;;;-3.75;93.70
73860;BME280;62197;51.632;13.700;2022-11-20T01:41:06;99975.94;;;-3.76;93.31
73860;BME280;62197;51.632;13.700;2022-11-20T01:43:32;99964.09;;;-3.83;93.28
73860;BME280;62197;51.632;13.700;2022-11-20T01:46:00;99963.38;;;-3.93;94.47
73860;BME280;62197;51.632;13.700;2022-11-20T01:48:33;99969.75;;;-4.02;94.68
73860;BME280;62197;51.632;13.700;2022-11-20T01:51:00;99964.50;;;-4.11;94.87
73860;BME280;62197;51.632;13.700;2022-11-20T01:53:32;99972.41;;;-4.10;95.36
73860;BME280;62197;51.632;13.700;2022-11-20T01:56:00;99969.81;;;-4.19;95.17
73860;BME280;62197;51.632;13.700;2022-11-20T01:58:32;99966.63;;;-4.23;95.22
73860;BME280;62197;51.632;13.700;2022-11-20T02:00:59;99961.56;;;-4.26;95.09
73860;BME280;62197;51.632;13.700;2022-11-20T02:03:25;99962.88;;;-4.30;95.43
73860;BME280;62197;51.632;13.700;2022-11-20T02:06:04;99969.25;;;-4.31;96.06
73860;BME280;62197;51.632;13.700;2022-11-20T02:08:33;99965.56;;;-4.30;95.57
73860;BME280;62197;51.632;13.700;2022-11-20T02:10:59;99963.88;;;-4.31;95.39
73860;BME280;62197;51.632;13.700;2022-11-20T02:13:24;99971.72;;;-4.37;95.58
73860;BME280;62197;51.632;13.700;2022-11-20T02:16:14;99970.91;;;-4.38;96.34
73860;BME280;62197;51.632;13.700;2022-11-20T02:18:40;99962.78;;;-4.46;95.98
73860;BME280;62197;51.632;13.700;2022-11-20T02:26:43;99951.88;;;-4.62;96.54
73860;BME280;62197;51.632;13.700;2022-11-20T02:29:10;99947.47;;;-4.71;96.69
73860;BME280;62197;51.632;13.700;2022-11-20T02:31:41;99958.50;;;-4.74;96.93
73860;BME280;62197;51.632;13.700;2022-11-20T02:34:07;99949.38;;;-4.81;97.04
73860;BME280;62197;51.632;13.700;2022-11-20T02:36:34;99945.47;;;-4.87;97.45
73860;BME280;62197;51.632;13.700;2022-11-20T02:39:02;99946.63;;;-4.89;97.24
73860;BME280;62197;51.632;13.700;2022-11-20T02:41:35;99950.09;;;-4.97;97.19
73860;BME280;62197;51.632;13.700;2022-11-20T02:44:01;99944.53;;;-5.03;97.34
73860;BME280;62197;51.632;13.700;2022-11-20T02:46:27;99944.81;;;-5.06;97.76
73860;BME280;62197;51.632;13.700;2022-11-20T02:48:52;99937.69;;;-5.15;97.81
73860;BME280;62197;51.632;13.700;2022-11-20T02:51:18;99940.66;;;-5.18;98.13
73860;BME280;62197;51.632;13.700;2022-11-20T02:53:43;99939.00;;;-5.19;98.11
73860;BME280;62197;51.632;13.700;2022-11-20T02:56:08;99929.16;;;-5.28;98.52
73860;BME280;62197;51.632;13.700;2022-11-20T02:58:34;99930.00;;;-5.28;98.69
73860;BME280;62197;51.632;13.700;2022-11-20T03:00:59;99929.16;;;-5.28;99.10
73860;BME280;62197;51.632;13.700;2022-11-20T03:03:25;99934.84;;;-5.31;99.06
73860;BME280;62197;51.632;13.700;2022-11-20T03:05:50;99929.84;;;-5.44;99.07
73860;BME280;62197;51.632;13.700;2022-11-20T03:08:15;99923.91;;;-5.47;99.54
73860;BME280;62197;51.632;13.700;2022-11-20T03:10:41;99933.16;;;-5.50;99.49
73860;BME280;62197;51.632;13.700;2022-11-20T03:13:06;99929.63;;;-5.51;99.59
73860;BME280;62197;51.632;13.700;2022-11-20T03:15:31;99932.16;;;-5.49;99.62
73860;BME280;62197;51.632;13.700;2022-11-20T03:17:57;99924.00;;;-5.57;100.00
73860;BME280;62197;51.632;13.700;2022-11-20T03:20:23;99922.31;;;-5.58;100.00
73860;BME280;62197;51.632;13.700;2022-11-20T03:22:48;99916.25;;;-5.60;100.00
73860;BME280;62197;51.632;13.700;2022-11-20T03:25:13;99913.56;;;-5.60;100.00
73860;BME280;62197;51.632;13.700;2022-11-20T03:27:39;99917.09;;;-5.60;100.00
73860;BME280;62197;51.632;13.700;2022-11-20T03:30:04;99917.78;;;-5.58;100.00
73860;BME280;62197;51.632;13.700;2022-11-20T03:32:30;99916.94;;;-5.58;100.00
73860;BME280;62197;51.632;13.700;2022-11-20T03:34:56;99913.72;;;-5.62;100.00
73860;BME280;62197;51.632;13.700;2022-11-20T03:37:21;99902.56;;;-5.67;100.00
73860;BME280;62197;51.632;13.700;2022-11-20T03:39:48;99909.81;;;-5.67;100.00
73860;BME280;62197;51.632;13.700;2022-11-20T03:42:13;99902.34;;;-5.73;100.00
73860;BME280;62197;51.632;13.700;2022-11-20T03:44:57;99904.34;;;-5.75;100.00
73860;BME280;62197;51.632;13.700;2022-11-20T03:47:22;99901.09;;;-5.79;100.00
73860;BME280;62197;51.632;13.700;2022-11-20T03:49:47;99887.97;;;-5.82;100.00
73860;BME280;62197;51.632;13.700;2022-11-20T03:52:13;99897.41;;;-5.78;100.00
73860;BME280;62197;51.632;13.700;2022-11-20T03:54:38;99882.59;;;-5.82;100.00
73860;BME280;62197;51.632;13.700;2022-11-20T03:57:04;99891.13;;;-5.86;100.00
73860;BME280;62197;51.632;13.700;2022-11-20T03:59:29;99891.13;;;-5.86;100.00
73860;BME280;62197;51.632;13.700;2022-11-20T04:01:54;99903.88;;;-5.88;100.00
73860;BME280;62197;51.632;13.700;2022-11-20T04:04:20;99889.81;;;-6.00;100.00
73860;BME280;62197;51.632;13.700;2022-11-20T04:06:45;99883.03;;;-6.04;100.00
73860;BME280;62197;51.632;13.700;2022-11-20T04:09:10;99895.88;;;-5.98;100.00
73860;BME280;62197;51.632;13.700;2022-11-20T04:11:37;99889.28;;;-6.03;100.00
73860;BME280;62197;51.632;13.700;2022-11-20T04:14:05;99901.56;;;-6.01;100.00
73860;BME280;62197;51.632;13.700;2022-11-20T04:16:34;99897.88;;;-6.00;100.00
73860;BME280;62197;51.632;13.700;2022-11-20T04:19:01;99891.78;;;-6.02;100.00
73860;BME280;62197;51.632;13.700;2022-11-20T04:21:27;99892.38;;;-5.98;100.00
73860;BME280;62197;51.632;13.700;2022-11-20T04:23:53;99893.19;;;-5.98;100.00
73860;BME280;62197;51.632;13.700;2022-11-20T04:26:20;99901.41;;;-5.99;100.00
73860;BME280;62197;51.632;13.700;2022-11-20T04:28:45;99890.97;;;-6.02;100.00
73860;BME280;62197;51.632;13.700;2022-11-20T04:31:22;99908.75;;;-6.01;100.00
73860;BME280;62197;51.632;13.700;2022-11-20T04:33:48;99902.97;;;-6.24;100.00
73860;BME280;62197;51.632;13.700;2022-11-20T04:36:25;99889.31;;;-6.40;100.00
73860;BME280;62197;51.632;13.700;2022-11-20T04:38:51;99895.69;;;-6.41;100.00
73860;BME280;62197;51.632;13.700;2022-11-20T04:41:19;99903.06;;;-6.43;100.00
73860;BME280;62197;51.632;13.700;2022-11-20T04:43:49;99907.72;;;-6.45;100.00
73860;BME280;62197;51.632;13.700;2022-11-20T04:46:15;99887.56;;;-6.59;100.00
73860;BME280;62197;51.632;13.700;2022-11-20T04:48:41;99895.47;;;-6.57;100.00
73860;BME280;62197;51.632;13.700;2022-11-20T04:51:06;99894.63;;;-6.58;100.00
73860;BME280;62197;51.632;13.700;2022-11-20T04:53:32;99906.47;;;-6.51;100.00
73860;BME280;62197;51.632;13.700;2022-11-20T04:56:01;99909.56;;;-6.46;100.00
73860;BME280;62197;51.632;13.700;2022-11-20T04:58:27;99904.88;;;-6.43;100.00
73860;BME280;62197;51.632;13.700;2022-11-20T05:00:53;99895.59;;;-6.49;100.00
73860;BME280;62197;51.632;13.700;2022-11-20T05:03:18;99902.47;;;-6.37;100.00
73860;BME280;62197;51.632;13.700;2022-11-20T05:05:44;99897.78;;;-6.35;100.00
73860;BME280;62197;51.632;13.700;2022-11-20T05:08:09;99897.09;;;-6.37;100.00
73860;BME280;62197;51.632;13.700;2022-11-20T05:10:34;99895.38;;;-6.38;100.00
73860;BME280;62197;51.632;13.700;2022-11-20T05:13:00;99900.06;;;-6.40;100.00
73860;BME280;62197;51.632;13.700;2022-11-20T05:15:25;99892.59;;;-6.46;100.00
73860;BME280;62197;51.632;13.700;2022-11-20T05:17:51;99894.59;;;-6.48;100.00
73860;BME280;62197;51.632;13.700;2022-11-20T05:20:17;99898.00;;;-6.56;100.00
73860;BME280;62197;51.632;13.700;2022-11-20T05:22:43;99892.25;;;-6.61;100.00
73860;BME280;62197;51.632;13.700;2022-11-20T05:25:09;99899.84;;;-6.56;100.00
73860;BME280;62197;51.632;13.700;2022-11-20T05:27:35;99889.03;;;-6.64;100.00
73860;BME280;62197;51.632;13.700;2022-11-20T05:30:00;99890.31;;;-6.68;100.00
73860;BME280;62197;51.632;13.700;2022-11-20T05:32:25;99902.56;;;-6.66;100.00
73860;BME280;62197;51.632;13.700;2022-11-20T05:34:52;99894.81;;;-6.69;100.00
73860;BME280;62197;51.632;13.700;2022-11-20T05:37:17;99904.00;;;-6.71;100.00
73860;BME280;62197;51.632;13.700;2022-11-20T05:39:42;99883.09;;;-6.77;100.00
73860;BME280;62197;51.632;13.700;2022-11-20T05:42:08;99885.25;;;-6.81;100.00
73860;BME280;62197;51.632;13.700;2022-11-20T05:44:51;99891.88;;;-6.85;100.00
73860;BME280;62197;51.632;13.700;2022-11-20T05:47:16;99890.75;;;-6.82;100.00
73860;BME280;62197;51.632;13.700;2022-11-20T05:49:42;99880.72;;;-6.80;100.00
73860;BME280;62197;51.632;13.700;2022-11-20T05:52:07;99885.53;;;-6.84;100.00
73860;BME280;62197;51.632;13.700;2022-11-20T05:54:32;99878.94;;;-6.89;100.00
73860;BME280;62197;51.632;13.700;2022-11-20T05:56:58;99879.91;;;-6.90;100.00
73860;BME280;62197;51.632;13.700;2022-11-20T05:59:23;99880.91;;;-6.91;100.00
73860;BME280;62197;51.632;13.700;2022-11-20T06:01:48;99870.22;;;-7.01;100.00
73860;BME280;62197;51.632;13.700;2022-11-20T06:04:14;99869.50;;;-7.03;100.00
73860;BME280;62197;51.632;13.700;2022-11-20T06:06:39;99870.22;;;-7.01;100.00
73860;BME280;62197;51.632;13.700;2022-11-20T06:09:05;99867.63;;;-6.93;100.00
73860;BME280;62197;51.632;13.700;2022-11-20T06:11:30;99854.69;;;-6.97;100.00
73860;BME280;62197;51.632;13.700;2022-11-20T06:13:55;99874.66;;;-6.82;100.00
73860;BME280;62197;51.632;13.700;2022-11-20T06:16:21;99876.81;;;-6.86;100.00
73860;BME280;62197;51.632;13.700;2022-11-20T06:18:47;99876.09;;;-6.88;100.00
73860;BME280;62197;51.632;13.700;2022-11-20T06:21:18;99873.56;;;-6.89;100.00
73860;BME280;62197;51.632;13.700;2022-11-20T06:23:44;99868.47;;;-6.92;100.00
73860;BME280;62197;51.632;13.700;2022-11-20T06:26:14;99870.47;;;-7.04;100.00
73860;BME280;62197;51.632;13.700;2022-11-20T06:28:40;99876.41;;;-7.00;100.00
73860;BME280;62197;51.632;13.700;2022-11-20T06:31:07;99872.88;;;-6.91;100.00
73860;BME280;62197;51.632;13.700;2022-11-20T06:33:32;99880.91;;;-6.91;100.00
73860;BME280;62197;51.632;13.700;2022-11-20T06:36:01;99874.16;;;-6.95;100.00
73860;BME280;62197;51.632;13.700;2022-11-20T06:38:27;99877.53;;;-6.93;100.00
73860;BME280;62197;51.632;13.700;2022-11-20T06:40:53;99877.09;;;-6.98;100.00
73860;BME280;62197;51.632;13.700;2022-11-20T06:43:18;99867.97;;;-7.05;100.00
73860;BME280;62197;51.632;13.700;2022-11-20T06:45:44;99862.59;;;-7.05;100.00
73860;BME280;62197;51.632;13.700;2022-11-20T06:48:09;99865.41;;;-6.97;100.00
73860;BME280;62197;51.632;13.700;2022-11-20T06:50:36;99875.81;;;-6.94;100.00
73860;BME280;62197;51.632;13.700;2022-11-20T06:53:03;99868.47;;;-6.92;100.00
73860;BME280;62197;51.632;13.700;2022-11-20T06:55:29;99878.19;;;-6.82;100.00
73860;BME280;62197;51.632;13.700;2022-11-20T06:57:54;99872.84;;;-6.82;100.00
73860;BME280;62197;51.632;13.700;2022-11-20T07:00:20;99877.34;;;-6.82;100.00
73860;BME280;62197;51.632;13.700;2022-11-20T07:02:45;99855.66;;;-6.98;100.00
73860;BME280;62197;51.632;13.700;2022-11-20T07:05:10;99869.31;;;-6.82;100.00
73860;BME280;62197;51.632;13.700;2022-11-20T07:07:36;99880.72;;;-6.80;100.00
73860;BME280;62197;51.632;13.700;2022-11-20T07:10:01;99874.63;;;-6.73;100.00
73860;BME280;62197;51.632;13.700;2022-11-20T07:12:26;99879.69;;;-6.60;100.00
73860;BME280;62197;51.632;13.700;2022-11-20T07:14:52;99879.06;;;-6.44;100.00
73860;BME280;62197;51.632;13.700;2022-11-20T07:17:17;99874.47;;;-6.34;100.00
73860;BME280;62197;51.632;13.700;2022-11-20T07:19:42;99887.94;;;-6.17;100.00
73860;BME280;62197;51.632;13.700;2022-11-20T07:22:08;99876.84;;;-6.04;100.00
73860;BME280;62197;51.632;13.700;2022-11-20T07:24:33;99869.72;;;-5.96;100.00
73860;BME280;62197;51.632;13.700;2022-11-20T07:27:00;99865.72;;;-5.92;100.00
73860;BME280;62197;51.632;13.700;2022-11-20T07:29:25;99858.91;;;-5.86;100.00
73860;BME280;62197;51.632;13.700;2022-11-20T07:31:50;99861.34;;;-5.75;100.00
73860;BME280;62197;51.632;13.700;2022-11-20T07:34:15;99863.97;;;-5.66;100.00
73860;BME280;62197;51.632;13.700;2022-11-20T07:36:41;99878.69;;;-5.52;99.83
73860;BME280;62197;51.632;13.700;2022-11-20T07:39:06;99880.28;;;-5.41;99.80
73860;BME280;62197;51.632;13.700;2022-11-20T07:41:32;99875.38;;;-5.28;98.45
73860;BME280;62197;51.632;13.700;2022-11-20T07:43:57;99863.44;;;-5.26;97.41
73860;BME280;62197;51.632;13.700;2022-11-20T07:46:23;99862.69;;;-4.93;100.00
73860;BME280;62197;51.632;13.700;2022-11-20T07:48:48;99860.06;;;-2.87;100.00
73860;BME280;62197;51.632;13.700;2022-11-20T07:51:13;99868.03;;;-2.31;100.00
73860;BME280;62197;51.632;13.700;2022-11-20T07:53:39;99862.16;;;-2.04;100.00
73860;BME280;62197;51.632;13.700;2022-11-20T07:56:05;99865.41;;;-1.77;100.00
73860;BME280;62197;51.632;13.700;2022-11-20T07:58:30;99867.81;;;-0.92;100.00
73860;BME280;62197;51.632;13.700;2022-11-20T08:00:58;99852.22;;;-1.50;95.39
73860;BME280;62197;51.632;13.700;2022-11-20T08:03:26;99854.25;;;-1.52;87.66
73860;BME280;62197;51.632;13.700;2022-11-20T08:05:52;99854.66;;;-2.79;85.88
73860;BME280;62197;51.632;13.700;2022-11-20T08:08:17;99849.75;;;-3.72;91.85
73860;BME280;62197;51.632;13.700;2022-11-20T08:10:43;99853.00;;;-3.52;90.19
73860;BME280;62197;51.632;13.700;2022-11-20T08:13:08;99852.22;;;-3.87;92.10
73860;BME280;62197;51.632;13.700;2022-11-20T08:15:52;99840.91;;;-3.98;94.35
73860;BME280;62197;51.632;13.700;2022-11-20T08:18:17;99853.50;;;-4.15;91.20
73860;BME280;62197;51.632;13.700;2022-11-20T08:20:43;99854.38;;;-4.06;95.19
73860;BME280;62197;51.632;13.700;2022-11-20T08:23:08;99844.91;;;-3.12;94.84
73860;BME280;62197;51.632;13.700;2022-11-20T08:25:35;99851.09;;;-2.80;92.14
73860;BME280;62197;51.632;13.700;2022-11-20T08:28:04;99853.97;;;-2.81;88.84
73860;BME280;62197;51.632;13.700;2022-11-20T08:30:30;99854.78;;;-2.18;90.37
73860;BME280;62197;51.632;13.700;2022-11-20T08:33:01;99843.09;;;-2.57;85.99
73860;BME280;62197;51.632;13.700;2022-11-20T08:35:27;99844.22;;;-2.35;89.38
73860;BME280;62197;51.632;13.700;2022-11-20T08:37:53;99843.56;;;-3.48;86.35
73860;BME280;62197;51.632;13.700;2022-11-20T08:40:18;99847.59;;;-3.60;89.62
73860;BME280;62197;51.632;13.700;2022-11-20T08:42:48;99855.09;;;-3.88;88.87
73860;BME280;62197;51.632;13.700;2022-11-20T08:45:14;99849.06;;;-3.74;91.86
73860;BME280;62197;51.632;13.700;2022-11-20T08:47:39;99847.91;;;-3.55;89.16
73860;BME280;62197;51.632;13.700;2022-11-20T08:50:05;99850.28;;;-3.52;88.84
73860;BME280;62197;51.632;13.700;2022-11-20T08:52:30;99849.44;;;-3.53;87.96
73860;BME280;62197;51.632;13.700;2022-11-20T08:54:55;99853.00;;;-3.52;88.50
73860;BME280;62197;51.632;13.700;2022-11-20T08:57:21;99857.72;;;-3.30;87.58
73860;BME280;62197;51.632;13.700;2022-11-20T08:59:46;99844.72;;;-3.11;86.39
73860;BME280;62197;51.632;13.700;2022-11-20T09:02:11;99857.19;;;-3.02;84.47
73860;BME280;62197;51.632;13.700;2022-11-20T09:04:37;99850.78;;;-3.09;85.23
73860;BME280;62197;51.632;13.700;2022-11-20T09:07:02;99843.19;;;-2.97;85.19
73860;BME280;62197;51.632;13.700;2022-11-20T09:09:28;99840.47;;;-2.89;84.23
73860;BME280;62197;51.632;13.700;2022-11-20T09:11:53;99838.75;;;-2.74;84.19
73860;BME280;62197;51.632;13.700;2022-11-20T09:14:18;99850.13;;;-2.40;84.78
73860;BME280;62197;51.632;13.700;2022-11-20T09:16:46;99831.09;;;-2.46;83.35
73860;BME280;62197;51.632;13.700;2022-11-20T09:19:12;99832.91;;;-2.39;82.48
73860;BME280;62197;51.632;13.700;2022-11-20T09:21:37;99835.66;;;-2.47;82.47
73860;BME280;62197;51.632;13.700;2022-11-20T09:24:03;99834.25;;;-2.35;83.24
73860;BME280;62197;51.632;13.700;2022-11-20T09:26:29;99834.75;;;-2.31;82.32
73860;BME280;62197;51.632;13.700;2022-11-20T09:28:54;99817.00;;;-2.26;81.15
73860;BME280;62197;51.632;13.700;2022-11-20T09:31:24;99826.88;;;-2.10;82.33
73860;BME280;62197;51.632;13.700;2022-11-20T09:33:51;99818.03;;;-1.96;81.65
73860;BME280;62197;51.632;13.700;2022-11-20T09:36:16;99808.19;;;-1.89;80.72
73860;BME280;62197;51.632;13.700;2022-11-20T09:38:44;99814.00;;;-1.77;79.46
73860;BME280;62197;51.632;13.700;2022-11-20T09:41:27;99802.84;;;-1.74;79.86
73860;BME280;62197;51.632;13.700;2022-11-20T09:47:11;99791.72;;;-1.79;79.69
73860;BME280;62197;51.632;13.700;2022-11-20T09:50:02;99789.34;;;-1.74;80.53
73860;BME280;62197;51.632;13.700;2022-11-20T09:55:11;99792.56;;;-1.56;79.40
73860;BME280;62197;51.632;13.700;2022-11-20T09:57:40;99794.25;;;-1.55;79.57
73860;BME280;62197;51.632;13.700;2022-11-20T10:00:10;99789.19;;;-1.58;79.85
73860;BME280;62197;51.632;13.700;2022-11-20T10:02:45;99785.59;;;-1.14;78.80
73860;BME280;62197;51.632;13.700;2022-11-20T10:05:18;99778.38;;;-0.55;77.74
73860;BME280;62197;51.632;13.700;2022-11-20T10:08:05;99765.53;;;-0.17;75.56
73860;BME280;62197;51.632;13.700;2022-11-20T10:10:46;99774.84;;;-0.41;73.53
73860;BME280;62197;51.632;13.700;2022-11-20T10:13:40;99764.13;;;-0.13;74.45
73860;BME280;62197;51.632;13.700;2022-11-20T10:16:34;99769.03;;;-0.38;74.91
73860;BME280;62197;51.632;13.700;2022-11-20T10:19:21;99765.16;;;-0.29;76.64
73860;BME280;62197;51.632;13.700;2022-11-20T10:24:44;99764.00;;;-0.41;75.84
73860;BME280;62197;51.632;13.700;2022-11-20T10:27:32;99771.47;;;-0.57;76.70
73860;BME280;62197;51.632;13.700;2022-11-20T10:30:08;99774.28;;;-0.51;77.55
73860;BME280;62197;51.632;13.700;2022-11-20T10:32:38;99764.44;;;-0.52;76.00
73860;BME280;62197;51.632;13.700;2022-11-20T10:37:46;99760.19;;;-0.11;78.05
73860;BME280;62197;51.632;13.700;2022-11-20T10:40:37;99762.09;;;0.10;74.95
73860;BME280;62197;51.632;13.700;2022-11-20T10:43:12;99754.06;;;-0.34;74.91
73860;BME280;62197;51.632;13.700;2022-11-20T10:48:16;99747.34;;;-0.38;75.40
73860;BME280;62197;51.632;13.700;2022-11-20T10:54:26;99735.34;;;-0.29;75.04
73860;BME280;62197;51.632;13.700;2022-11-20T10:57:04;99731.03;;;-0.23;74.49
73860;BME280;62197;51.632;13.700;2022-11-20T11:02:22;99736.63;;;1.77;67.49
73860;BME280;62197;51.632;13.700;2022-11-20T11:04:50;99736.25;;;1.87;66.76
73860;BME280;62197;51.632;13.700;2022-11-20T11:07:26;99733.44;;;2.27;65.12
73860;BME280;62197;51.632;13.700;2022-11-20T11:09:54;99746.28;;;1.79;65.58
73860;BME280;62197;51.632;13.700;2022-11-20T11:12:24;99741.91;;;1.44;67.97
73860;BME280;62197;51.632;13.700;2022-11-20T11:14:56;99724.69;;;1.71;66.05
73860;BME280;62197;51.632;13.700;2022-11-20T11:17:25;99735.47;;;1.99;65.96
73860;BME280;62197;51.632;13.700;2022-11-20T11:22:44;99730.22;;;1.16;69.46
73860;BME280;62197;51.632;13.700;2022-11-20T11:25:19;99725.13;;;1.00;70.97
73860;BME280;62197;51.632;13.700;2022-11-20T11:27:46;99723.28;;;0.79;69.71
73860;BME280;62197;51.632;13.700;2022-11-20T11:30:14;99711.44;;;0.59;71.40
73860;BME280;62197;51.632;13.700;2022-11-20T11:32:40;99708.47;;;0.82;70.76
73860;BME280;62197;51.632;13.700;2022-11-20T11:35:11;99713.25;;;0.80;72.14
73860;BME280;62197;51.632;13.700;2022-11-20T11:37:43;99713.13;;;0.88;70.46
73860;BME280;62197;51.632;13.700;2022-11-20T11:40:11;99698.69;;;1.15;71.44
73860;BME280;62197;51.632;13.700;2022-11-20T11:42:46;99697.84;;;2.29;65.40
73860;BME280;62197;51.632;13.700;2022-11-20T11:45:15;99708.88;;;3.45;62.28
73860;BME280;62197;51.632;13.700;2022-11-20T11:50:19;99709.16;;;4.81;56.48
73860;BME280;62197;51.632;13.700;2022-11-20T11:53:03;99694.72;;;4.99;55.41
73860;BME280;62197;51.632;13.700;2022-11-20T11:55:55;99699.09;;;5.24;53.99
73860;BME280;62197;51.632;13.700;2022-11-20T11:58:43;99684.53;;;4.88;55.15
73860;BME280;62197;51.632;13.700;2022-11-20T12:01:14;99694.34;;;4.95;54.32
73860;BME280;62197;51.632;13.700;2022-11-20T12:03:44;99692.19;;;4.73;55.54
73860;BME280;62197;51.632;13.700;2022-11-20T12:06:16;99685.63;;;5.23;54.47
73860;BME280;62197;51.632;13.700;2022-11-20T12:09:05;99683.44;;;5.31;52.85
73860;BME280;62197;51.632;13.700;2022-11-20T12:11:34;99680.47;;;4.90;54.23
73860;BME280;62197;51.632;13.700;2022-11-20T12:14:11;99676.75;;;5.27;53.62
73860;BME280;62197;51.632;13.700;2022-11-20T12:16:39;99666.47;;;6.13;51.54
73860;BME280;62197;51.632;13.700;2022-11-20T12:19:13;99667.66;;;6.17;51.08
73860;BME280;62197;51.632;13.700;2022-11-20T12:24:17;99661.22;;;5.76;51.48
73860;BME280;62197;51.632;13.700;2022-11-20T12:30:14;99660.47;;;5.87;51.99
73860;BME280;62197;51.632;13.700;2022-11-20T12:33:03;99669.00;;;5.42;52.83
73860;BME280;62197;51.632;13.700;2022-11-20T12:50:28;99659.53;;;6.41;51.02
73860;BME280;62197;51.632;13.700;2022-11-20T12:53:04;99659.09;;;6.25;51.20
73860;BME280;62197;51.632;13.700;2022-11-20T12:58:27;99655.31;;;6.79;50.64
73860;BME280;62197;51.632;13.700;2022-11-20T13:01:12;99662.56;;;6.85;51.17
73860;BME280;62197;51.632;13.700;2022-11-20T13:04:12;99654.19;;;6.69;50.63
73860;BME280;62197;51.632;13.700;2022-11-20T13:06:40;99659.19;;;6.72;50.74
73860;BME280;62197;51.632;13.700;2022-11-20T13:09:11;99664.47;;;6.02;50.73
73860;BME280;62197;51.632;13.700;2022-11-20T13:12:01;99663.56;;;6.38;50.92
73860;BME280;62197;51.632;13.700;2022-11-20T13:14:38;99660.94;;;5.84;50.94
73860;BME280;62197;51.632;13.700;2022-11-20T13:17:28;99665.97;;;5.50;52.42
73860;BME280;62197;51.632;13.700;2022-11-20T13:19:56;99657.97;;;5.31;53.71
73860;BME280;62197;51.632;13.700;2022-11-20T13:22:42;99658.44;;;5.64;51.63
73860;BME280;62197;51.632;13.700;2022-11-20T13:25:25;99658.97;;;5.73;51.43
73860;BME280;62197;51.632;13.700;2022-11-20T13:27:51;99656.06;;;6.04;50.28
73860;BME280;62197;51.632;13.700;2022-11-20T13:30:20;99661.31;;;5.33;51.64
73860;BME280;62197;51.632;13.700;2022-11-20T13:32:51;99653.97;;;5.33;52.05
73860;BME280;62197;51.632;13.700;2022-11-20T13:35:35;99644.81;;;5.94;50.48
73860;BME280;62197;51.632;13.700;2022-11-20T13:38:07;99663.28;;;5.98;50.35
73860;BME280;62197;51.632;13.700;2022-11-20T13:40:36;99644.56;;;6.25;49.54
73860;BME280;62197;51.632;13.700;2022-11-20T13:45:59;99653.91;;;5.40;51.85
73860;BME280;62197;51.632;13.700;2022-11-20T13:48:29;99658.47;;;4.85;53.92
73860;BME280;62197;51.632;13.700;2022-11-20T13:51:12;99656.81;;;2.63;59.83
73860;BME280;62197;51.632;13.700;2022-11-20T13:59:38;99655.19;;;0.05;71.88